createdAt,value
2018-02-27T00:00:13.173Z,996.76
2018-02-27T00:01:13.162Z,996.76
2018-02-27T00:02:13.154Z,996.73
2018-02-27T00:03:13.144Z,996.74
2018-02-27T00:04:13.140Z,996.75
2018-02-27T00:05:13.140Z,996.73
2018-02-27T00:06:13.126Z,996.77
2018-02-27T00:07:13.118Z,996.74
2018-02-27T00:08:13.113Z,996.76
2018-02-27T00:09:13.109Z,996.77
2018-02-27T00:10:13.099Z,996.75
2018-02-27T00:11:13.124Z,996.72
2018-02-27T00:12:13.112Z,996.74
2018-02-27T00:13:13.104Z,996.78
2018-02-27T00:14:13.070Z,996.73
2018-02-27T00:15:13.065Z,996.77
2018-02-27T00:16:13.062Z,996.77
2018-02-27T00:17:13.052Z,996.73
2018-02-27T00:18:13.043Z,996.75
2018-02-27T00:19:13.037Z,996.75
2018-02-27T00:20:13.027Z,996.77
2018-02-27T00:21:13.024Z,996.77
2018-02-27T00:22:13.019Z,996.77
2018-02-27T00:23:13.010Z,996.77
2018-02-27T00:24:13.004Z,996.83
2018-02-27T00:25:12.996Z,996.76
2018-02-27T00:26:12.989Z,996.78
2018-02-27T00:27:12.981Z,996.77
2018-02-27T00:28:12.978Z,996.73
2018-02-27T00:29:12.966Z,996.73
2018-02-27T00:30:12.961Z,996.79
2018-02-27T00:31:12.958Z,996.76
2018-02-27T00:32:12.948Z,996.71
2018-02-27T00:33:12.940Z,996.67
2018-02-27T00:34:12.932Z,996.71
2018-02-27T00:35:12.926Z,996.64
2018-02-27T00:36:12.920Z,996.62
2018-02-27T00:37:12.914Z,996.58
2018-02-27T00:38:12.907Z,996.57
2018-02-27T00:39:12.901Z,996.53
2018-02-27T00:40:12.894Z,996.54
2018-02-27T00:41:12.887Z,996.54
2018-02-27T00:42:12.881Z,996.50
2018-02-27T00:43:12.878Z,996.47
2018-02-27T00:44:12.864Z,996.48
2018-02-27T00:45:12.861Z,996.51
2018-02-27T00:46:12.852Z,996.49
2018-02-27T00:47:12.846Z,996.47
2018-02-27T00:48:12.838Z,996.42
2018-02-27T00:49:12.830Z,996.41
2018-02-27T00:50:12.824Z,996.45
2018-02-27T00:51:12.817Z,996.43
2018-02-27T00:52:12.812Z,996.49
2018-02-27T00:53:12.804Z,996.46
2018-02-27T00:54:12.796Z,996.47
2018-02-27T00:55:12.790Z,996.46
2018-02-27T00:56:12.783Z,996.48
2018-02-27T00:57:12.781Z,996.45
2018-02-27T00:58:12.772Z,996.45
2018-02-27T00:59:12.763Z,996.46
2018-02-27T01:00:12.761Z,996.43
2018-02-27T01:01:12.752Z,996.45
2018-02-27T01:02:12.743Z,996.41
2018-02-27T01:03:12.743Z,996.39
2018-02-27T01:04:12.730Z,996.42
2018-02-27T01:05:12.723Z,996.40
2018-02-27T01:06:12.718Z,996.41
2018-02-27T01:07:12.709Z,996.42
2018-02-27T01:08:12.702Z,996.37
2018-02-27T01:09:12.698Z,996.41
2018-02-27T01:10:12.690Z,996.47
2018-02-27T01:11:12.682Z,996.40
2018-02-27T01:12:12.676Z,996.42
2018-02-27T01:13:12.669Z,996.45
2018-02-27T01:14:12.660Z,996.41
2018-02-27T01:15:12.657Z,996.43
2018-02-27T01:16:12.648Z,996.41
2018-02-27T01:17:12.644Z,996.41
2018-02-27T01:18:12.634Z,996.43
2018-02-27T01:19:12.629Z,996.44
2018-02-27T01:20:12.621Z,996.43
2018-02-27T01:21:12.615Z,996.39
2018-02-27T01:22:12.607Z,996.40
2018-02-27T01:23:12.602Z,996.36
2018-02-27T01:24:12.596Z,996.35
2018-02-27T01:25:12.587Z,996.37
2018-02-27T01:26:12.580Z,996.38
2018-02-27T01:27:12.574Z,996.32
2018-02-27T01:28:12.568Z,996.32
2018-02-27T01:29:12.561Z,996.30
2018-02-27T01:30:12.552Z,996.28
2018-02-27T01:31:12.546Z,996.33
2018-02-27T01:32:12.540Z,996.33
2018-02-27T01:33:12.535Z,996.32
2018-02-27T01:34:12.527Z,996.33
2018-02-27T01:35:12.519Z,996.34
2018-02-27T01:36:12.514Z,996.31
2018-02-27T01:37:12.506Z,996.28
2018-02-27T01:38:12.499Z,996.31
2018-02-27T01:39:12.493Z,996.25
2018-02-27T01:40:12.488Z,996.27
2018-02-27T01:41:12.480Z,996.26
2018-02-27T01:42:12.472Z,996.27
2018-02-27T01:43:12.464Z,996.29
2018-02-27T01:44:12.459Z,996.27
2018-02-27T01:45:12.451Z,996.25
2018-02-27T01:46:12.445Z,996.25
2018-02-27T01:47:12.442Z,996.27
2018-02-27T01:48:12.432Z,996.26
2018-02-27T01:49:12.425Z,996.27
2018-02-27T01:50:12.419Z,996.20
2018-02-27T01:51:12.410Z,996.26
2018-02-27T01:52:12.408Z,996.17
2018-02-27T01:53:12.399Z,996.13
2018-02-27T01:54:12.391Z,996.13
2018-02-27T01:55:12.386Z,996.11
2018-02-27T01:56:12.381Z,996.06
2018-02-27T01:57:12.369Z,996.09
2018-02-27T01:58:12.364Z,996.04
2018-02-27T01:59:12.358Z,996.05
2018-02-27T02:00:12.351Z,996.07
2018-02-27T02:01:12.343Z,996.06
2018-02-27T02:02:12.331Z,996.03
2018-02-27T02:03:12.330Z,996.00
2018-02-27T02:04:12.324Z,996.04
2018-02-27T02:05:12.314Z,996.02
2018-02-27T02:06:12.311Z,995.99
2018-02-27T02:07:12.303Z,995.97
2018-02-27T02:08:12.297Z,995.97
2018-02-27T02:09:12.292Z,995.96
2018-02-27T02:10:12.285Z,995.98
2018-02-27T02:11:12.276Z,996.02
2018-02-27T02:12:12.271Z,995.94
2018-02-27T02:13:12.263Z,995.94
2018-02-27T02:14:12.256Z,995.94
2018-02-27T02:15:12.254Z,995.90
2018-02-27T02:16:12.250Z,995.89
2018-02-27T02:17:12.239Z,995.89
2018-02-27T02:18:12.232Z,995.91
2018-02-27T02:19:12.219Z,995.92
2018-02-27T02:20:12.221Z,995.88
2018-02-27T02:21:12.210Z,995.94
2018-02-27T02:22:12.202Z,995.94
2018-02-27T02:23:12.196Z,995.87
2018-02-27T02:24:12.190Z,995.89
2018-02-27T02:25:12.182Z,995.91
2018-02-27T02:26:12.176Z,995.92
2018-02-27T02:27:12.170Z,995.87
2018-02-27T02:28:12.162Z,995.85
2018-02-27T02:29:12.158Z,995.86
2018-02-27T02:30:12.150Z,995.83
2018-02-27T02:31:12.146Z,995.82
2018-02-27T02:32:12.137Z,995.77
2018-02-27T02:33:12.129Z,995.84
2018-02-27T02:34:12.123Z,995.77
2018-02-27T02:35:12.115Z,995.77
2018-02-27T02:36:12.111Z,995.82
2018-02-27T02:37:12.103Z,995.78
2018-02-27T02:38:12.096Z,995.83
2018-02-27T02:39:12.096Z,995.84
2018-02-27T02:40:12.084Z,995.80
2018-02-27T02:41:12.077Z,995.84
2018-02-27T02:42:12.069Z,995.87
2018-02-27T02:43:12.062Z,995.85
2018-02-27T02:44:12.058Z,995.82
2018-02-27T02:45:12.050Z,995.80
2018-02-27T02:46:12.043Z,995.77
2018-02-27T02:47:12.034Z,995.83
2018-02-27T02:48:12.030Z,995.81
2018-02-27T02:49:12.023Z,995.80
2018-02-27T02:50:12.014Z,995.79
2018-02-27T02:51:12.009Z,995.78
2018-02-27T02:52:12.003Z,995.79
2018-02-27T02:53:11.995Z,995.80
2018-02-27T02:54:11.991Z,995.79
2018-02-27T02:55:11.982Z,995.77
2018-02-27T02:56:11.980Z,995.80
2018-02-27T02:57:11.975Z,995.80
2018-02-27T02:58:11.961Z,995.77
2018-02-27T02:59:11.954Z,995.76
2018-02-27T03:00:11.947Z,995.73
2018-02-27T03:01:11.955Z,995.74
2018-02-27T03:02:11.934Z,995.75
2018-02-27T03:03:11.935Z,995.74
2018-02-27T03:04:11.928Z,995.71
2018-02-27T03:05:11.935Z,995.75
2018-02-27T03:06:11.908Z,995.73
2018-02-27T03:07:11.902Z,995.75
2018-02-27T03:08:11.907Z,995.73
2018-02-27T03:09:11.889Z,995.71
2018-02-27T03:10:11.885Z,995.71
2018-02-27T03:11:11.876Z,995.69
2018-02-27T03:12:11.873Z,995.70
2018-02-27T03:13:11.866Z,995.65
2018-02-27T03:14:11.855Z,995.68
2018-02-27T03:15:11.850Z,995.66
2018-02-27T03:16:11.841Z,995.65
2018-02-27T03:17:11.836Z,995.64
2018-02-27T03:18:11.826Z,995.61
2018-02-27T03:19:11.821Z,995.56
2018-02-27T03:20:11.845Z,995.54
2018-02-27T03:21:11.813Z,995.54
2018-02-27T03:22:11.800Z,995.48
2018-02-27T03:23:11.794Z,995.50
2018-02-27T03:24:11.822Z,995.46
2018-02-27T03:25:11.817Z,995.42
2018-02-27T03:26:11.806Z,995.41
2018-02-27T03:27:11.764Z,995.40
2018-02-27T03:28:11.779Z,995.36
2018-02-27T03:29:11.753Z,995.37
2018-02-27T03:30:11.747Z,995.34
2018-02-27T03:31:11.744Z,995.38
2018-02-27T03:32:11.732Z,995.35
2018-02-27T03:33:11.720Z,995.35
2018-02-27T03:34:11.719Z,995.33
2018-02-27T03:35:11.711Z,995.35
2018-02-27T03:36:11.705Z,995.33
2018-02-27T03:37:11.703Z,995.33
2018-02-27T03:38:11.707Z,995.31
2018-02-27T03:39:11.691Z,995.28
2018-02-27T03:40:11.678Z,995.27
2018-02-27T03:41:11.673Z,995.29
2018-02-27T03:42:11.662Z,995.31
2018-02-27T03:43:11.660Z,995.25
2018-02-27T03:44:11.652Z,995.28
2018-02-27T03:45:11.646Z,995.29
2018-02-27T03:46:11.637Z,995.28
2018-02-27T03:47:11.633Z,995.28
2018-02-27T03:48:11.622Z,995.26
2018-02-27T03:49:11.619Z,995.27
2018-02-27T03:50:11.613Z,995.25
2018-02-27T03:51:11.605Z,995.27
2018-02-27T03:52:11.599Z,995.25
2018-02-27T03:53:11.590Z,995.20
2018-02-27T03:54:11.584Z,995.26
2018-02-27T03:55:11.577Z,995.24
2018-02-27T03:56:11.570Z,995.20
2018-02-27T03:57:11.565Z,995.18
2018-02-27T03:58:11.554Z,995.21
2018-02-27T03:59:11.549Z,995.18
2018-02-27T04:00:11.543Z,995.14
2018-02-27T04:01:11.536Z,995.18
2018-02-27T04:02:11.530Z,995.15
2018-02-27T04:03:11.526Z,995.15
2018-02-27T04:04:11.518Z,995.15
2018-02-27T04:05:11.509Z,995.12
2018-02-27T04:06:11.502Z,995.12
2018-02-27T04:07:11.500Z,995.13
2018-02-27T04:08:11.490Z,995.15
2018-02-27T04:09:11.483Z,995.09
2018-02-27T04:10:11.477Z,995.09
2018-02-27T04:11:11.470Z,995.09
2018-02-27T04:12:11.463Z,995.08
2018-02-27T04:13:11.458Z,995.05
2018-02-27T04:14:11.449Z,995.07
2018-02-27T04:15:11.445Z,995.07
2018-02-27T04:16:11.436Z,995.12
2018-02-27T04:17:11.431Z,995.09
2018-02-27T04:18:11.422Z,995.09
2018-02-27T04:19:11.416Z,995.05
2018-02-27T04:20:11.409Z,995.02
2018-02-27T04:21:11.413Z,995.02
2018-02-27T04:22:11.395Z,995.01
2018-02-27T04:23:11.389Z,995.01
2018-02-27T04:24:11.383Z,995.01
2018-02-27T04:25:11.378Z,995.01
2018-02-27T04:26:11.371Z,994.97
2018-02-27T04:27:11.361Z,995.00
2018-02-27T04:28:11.356Z,994.97
2018-02-27T04:29:11.349Z,995.03
2018-02-27T04:30:11.344Z,995.00
2018-02-27T04:31:11.338Z,994.98
2018-02-27T04:32:11.330Z,994.97
2018-02-27T04:33:11.323Z,995.00
2018-02-27T04:34:11.316Z,994.99
2018-02-27T04:35:11.310Z,994.98
2018-02-27T04:36:11.304Z,995.01
2018-02-27T04:37:11.298Z,994.99
2018-02-27T04:38:11.291Z,994.99
2018-02-27T04:39:11.284Z,994.97
2018-02-27T04:40:11.278Z,995.00
2018-02-27T04:41:11.271Z,994.99
2018-02-27T04:42:11.265Z,995.01
2018-02-27T04:43:11.258Z,994.99
2018-02-27T04:44:11.257Z,994.99
2018-02-27T04:45:11.256Z,994.98
2018-02-27T04:46:11.237Z,995.01
2018-02-27T04:47:11.232Z,994.96
2018-02-27T04:48:11.225Z,995.01
2018-02-27T04:49:11.220Z,995.00
2018-02-27T04:50:11.211Z,995.00
2018-02-27T04:51:11.243Z,995.02
2018-02-27T04:52:11.199Z,995.04
2018-02-27T04:53:11.192Z,994.99
2018-02-27T04:54:11.186Z,995.01
2018-02-27T04:55:11.181Z,994.95
2018-02-27T04:56:11.174Z,994.98
2018-02-27T04:57:11.166Z,995.02
2018-02-27T04:58:11.159Z,994.99
2018-02-27T04:59:11.152Z,995.01
2018-02-27T05:00:11.144Z,995.04
2018-02-27T05:01:11.139Z,995.08
2018-02-27T05:02:11.130Z,995.11
2018-02-27T05:03:11.123Z,995.10
2018-02-27T05:04:11.116Z,995.09
2018-02-27T05:05:11.107Z,995.09
2018-02-27T05:06:11.101Z,995.10
2018-02-27T05:07:11.093Z,995.12
2018-02-27T05:08:11.085Z,995.13
2018-02-27T05:09:11.077Z,995.10
2018-02-27T05:10:11.071Z,995.12
2018-02-27T05:11:11.062Z,995.15
2018-02-27T05:12:11.055Z,995.10
2018-02-27T05:13:11.047Z,995.14
2018-02-27T05:14:11.038Z,995.11
2018-02-27T05:15:11.031Z,995.13
2018-02-27T05:16:11.024Z,995.10
2018-02-27T05:17:11.020Z,995.12
2018-02-27T05:18:11.006Z,995.10
2018-02-27T05:19:11.000Z,995.11
2018-02-27T05:20:10.992Z,995.10
2018-02-27T05:21:10.981Z,995.07
2018-02-27T05:22:10.973Z,995.06
2018-02-27T05:23:11.009Z,995.06
2018-02-27T05:24:10.959Z,995.05
2018-02-27T05:25:10.950Z,995.02
2018-02-27T05:26:10.940Z,995.01
2018-02-27T05:27:10.934Z,995.02
2018-02-27T05:28:10.925Z,995.00
2018-02-27T05:29:10.917Z,995.02
2018-02-27T05:30:10.907Z,995.02
2018-02-27T05:31:10.900Z,995.01
2018-02-27T05:32:10.893Z,995.02
2018-02-27T05:33:10.885Z,995.01
2018-02-27T05:34:10.878Z,995.03
2018-02-27T05:35:10.868Z,995.02
2018-02-27T05:36:10.865Z,995.03
2018-02-27T05:37:10.857Z,995.01
2018-02-27T05:38:10.846Z,995.03
2018-02-27T05:39:10.836Z,995.09
2018-02-27T05:40:10.829Z,995.03
2018-02-27T05:41:10.821Z,995.05
2018-02-27T05:42:10.812Z,995.06
2018-02-27T05:43:10.804Z,995.04
2018-02-27T05:44:10.796Z,995.04
2018-02-27T05:45:10.789Z,995.03
2018-02-27T05:46:10.782Z,995.05
2018-02-27T05:47:10.773Z,995.06
2018-02-27T05:48:10.764Z,995.08
2018-02-27T05:49:10.756Z,995.07
2018-02-27T05:50:10.751Z,995.09
2018-02-27T05:51:10.739Z,995.05
2018-02-27T05:52:10.734Z,995.11
2018-02-27T05:53:10.725Z,995.13
2018-02-27T05:54:10.717Z,995.12
2018-02-27T05:55:10.711Z,995.14
2018-02-27T05:56:10.700Z,995.14
2018-02-27T05:57:10.693Z,995.13
2018-02-27T05:58:10.682Z,995.15
2018-02-27T05:59:10.676Z,995.14
2018-02-27T06:00:10.672Z,995.14
2018-02-27T06:01:10.679Z,995.15
2018-02-27T06:02:10.653Z,995.14
2018-02-27T06:03:10.646Z,995.18
2018-02-27T06:04:10.638Z,995.17
2018-02-27T06:05:10.628Z,995.13
2018-02-27T06:06:10.620Z,995.12
2018-02-27T06:07:10.616Z,995.16
2018-02-27T06:08:10.608Z,995.13
2018-02-27T06:09:10.597Z,995.11
2018-02-27T06:10:10.589Z,995.12
2018-02-27T06:11:10.622Z,995.13
2018-02-27T06:12:10.573Z,995.16
2018-02-27T06:13:10.565Z,995.10
2018-02-27T06:14:10.557Z,995.12
2018-02-27T06:15:10.548Z,995.11
2018-02-27T06:16:10.540Z,995.12
2018-02-27T06:17:10.532Z,995.15
2018-02-27T06:18:10.524Z,995.13
2018-02-27T06:19:10.519Z,995.14
2018-02-27T06:20:10.508Z,995.15
2018-02-27T06:21:10.500Z,995.14
2018-02-27T06:22:10.492Z,995.11
2018-02-27T06:23:10.482Z,995.17
2018-02-27T06:24:10.474Z,995.14
2018-02-27T06:25:10.469Z,995.18
2018-02-27T06:26:10.459Z,995.22
2018-02-27T06:27:10.452Z,995.15
2018-02-27T06:28:10.444Z,995.26
2018-02-27T06:29:10.435Z,995.22
2018-02-27T06:30:10.426Z,995.20
2018-02-27T06:31:10.427Z,995.23
2018-02-27T06:32:10.411Z,995.19
2018-02-27T06:33:10.408Z,995.22
2018-02-27T06:34:10.394Z,995.22
2018-02-27T06:35:10.387Z,995.23
2018-02-27T06:36:10.379Z,995.24
2018-02-27T06:37:10.370Z,995.23
2018-02-27T06:38:10.361Z,995.22
2018-02-27T06:39:10.354Z,995.26
2018-02-27T06:40:10.345Z,995.24
2018-02-27T06:41:10.337Z,995.26
2018-02-27T06:42:10.331Z,995.22
2018-02-27T06:43:10.325Z,995.24
2018-02-27T06:44:10.313Z,995.23
2018-02-27T06:45:10.304Z,995.23
2018-02-27T06:46:10.303Z,995.27
2018-02-27T06:47:10.353Z,995.24
2018-02-27T06:48:10.279Z,995.23
2018-02-27T06:49:10.272Z,995.24
2018-02-27T06:50:10.263Z,995.23
2018-02-27T06:51:10.256Z,995.28
2018-02-27T06:52:10.248Z,995.23
2018-02-27T06:53:10.242Z,995.28
2018-02-27T06:54:10.230Z,995.26
2018-02-27T06:55:10.225Z,995.23
2018-02-27T06:56:10.216Z,995.24
2018-02-27T06:57:10.206Z,995.28
2018-02-27T06:58:10.197Z,995.26
2018-02-27T06:59:10.191Z,995.25
2018-02-27T07:00:10.185Z,995.26
2018-02-27T07:01:10.175Z,995.22
2018-02-27T07:02:10.166Z,995.24
2018-02-27T07:03:10.157Z,995.24
2018-02-27T07:04:10.149Z,995.28
2018-02-27T07:05:10.141Z,995.22
2018-02-27T07:06:10.133Z,995.29
2018-02-27T07:07:10.126Z,995.28
2018-02-27T07:08:10.116Z,995.28
2018-02-27T07:09:10.140Z,995.28
2018-02-27T07:10:10.137Z,995.29
2018-02-27T07:11:10.126Z,995.28
2018-02-27T07:12:10.112Z,995.27
2018-02-27T07:13:10.104Z,995.28
2018-02-27T07:14:10.088Z,995.27
2018-02-27T07:15:10.085Z,995.26
2018-02-27T07:16:10.055Z,995.33
2018-02-27T07:17:10.046Z,995.24
2018-02-27T07:18:10.036Z,995.27
2018-02-27T07:19:10.029Z,995.24
2018-02-27T07:20:10.021Z,995.23
2018-02-27T07:21:10.012Z,995.27
2018-02-27T07:22:10.005Z,995.26
2018-02-27T07:23:09.996Z,995.32
2018-02-27T07:24:09.988Z,995.26
2018-02-27T07:25:09.981Z,995.28
2018-02-27T07:26:09.971Z,995.26
2018-02-27T07:27:09.965Z,995.26
2018-02-27T07:28:09.955Z,995.28
2018-02-27T07:29:09.950Z,995.35
2018-02-27T07:30:09.992Z,995.32
2018-02-27T07:31:09.942Z,995.31
2018-02-27T07:32:09.925Z,995.34
2018-02-27T07:33:09.917Z,995.33
2018-02-27T07:34:09.909Z,995.36
2018-02-27T07:35:09.900Z,995.33
2018-02-27T07:36:09.892Z,995.38
2018-02-27T07:37:09.884Z,995.34
2018-02-27T07:38:09.877Z,995.35
2018-02-27T07:39:09.868Z,995.36
2018-02-27T07:40:09.861Z,995.38
2018-02-27T07:41:09.853Z,995.38
2018-02-27T07:42:09.845Z,995.37
2018-02-27T07:43:09.841Z,995.37
2018-02-27T07:44:09.828Z,995.39
2018-02-27T07:45:09.822Z,995.39
2018-02-27T07:46:09.813Z,995.37
2018-02-27T07:47:09.807Z,995.40
2018-02-27T07:48:09.799Z,995.36
2018-02-27T07:49:09.793Z,995.40
2018-02-27T07:50:09.783Z,995.39
2018-02-27T07:51:09.776Z,995.38
2018-02-27T07:52:09.767Z,995.34
2018-02-27T07:53:09.760Z,995.37
2018-02-27T07:54:09.753Z,995.35
2018-02-27T07:55:09.744Z,995.40
2018-02-27T07:56:09.737Z,995.36
2018-02-27T07:57:09.730Z,995.40
2018-02-27T07:58:09.733Z,995.40
2018-02-27T07:59:09.725Z,995.41
2018-02-27T08:00:09.711Z,995.36
2018-02-27T08:01:09.700Z,995.34
2018-02-27T08:02:09.692Z,995.35
2018-02-27T08:03:09.685Z,995.40
2018-02-27T08:04:09.736Z,995.38
2018-02-27T08:05:09.671Z,995.32
2018-02-27T08:06:09.662Z,995.31
2018-02-27T08:07:09.655Z,995.32
2018-02-27T08:08:09.649Z,995.33
2018-02-27T08:09:09.641Z,995.30
2018-02-27T08:10:09.639Z,995.31
2018-02-27T08:11:09.625Z,995.37
2018-02-27T08:12:09.620Z,995.35
2018-02-27T08:13:09.611Z,995.32
2018-02-27T08:14:09.605Z,995.32
2018-02-27T08:15:09.596Z,995.34
2018-02-27T08:16:09.652Z,995.34
2018-02-27T08:17:09.581Z,995.35
2018-02-27T08:18:09.577Z,995.34
2018-02-27T08:19:09.567Z,995.34
2018-02-27T08:20:09.558Z,995.32
2018-02-27T08:21:09.557Z,995.35
2018-02-27T08:22:09.545Z,995.39
2018-02-27T08:23:09.538Z,995.36
2018-02-27T08:24:09.529Z,995.40
2018-02-27T08:25:09.524Z,995.37
2018-02-27T08:26:09.516Z,995.35
2018-02-27T08:27:09.510Z,995.39
2018-02-27T08:28:09.502Z,995.41
2018-02-27T08:29:09.496Z,995.32
2018-02-27T08:30:09.487Z,995.34
2018-02-27T08:31:09.481Z,995.34
2018-02-27T08:32:09.474Z,995.32
2018-02-27T08:33:09.471Z,995.34
2018-02-27T08:34:09.460Z,995.34
2018-02-27T08:35:09.453Z,995.32
2018-02-27T08:36:09.448Z,995.29
2018-02-27T08:37:09.440Z,995.28
2018-02-27T08:38:09.433Z,995.28
2018-02-27T08:39:09.426Z,995.28
2018-02-27T08:40:09.423Z,995.28
2018-02-27T08:41:09.413Z,995.28
2018-02-27T08:42:09.404Z,995.30
2018-02-27T08:43:09.398Z,995.27
2018-02-27T08:44:09.396Z,995.26
2018-02-27T08:45:09.386Z,995.27
2018-02-27T08:46:09.378Z,995.22
2018-02-27T08:47:09.372Z,995.23
2018-02-27T08:48:09.364Z,995.26
2018-02-27T08:49:09.359Z,995.30
2018-02-27T08:50:09.350Z,995.25
2018-02-27T08:51:09.342Z,995.22
2018-02-27T08:52:09.338Z,995.21
2018-02-27T08:53:09.331Z,995.20
2018-02-27T08:54:09.324Z,995.22
2018-02-27T08:55:09.317Z,995.24
2018-02-27T08:56:09.356Z,995.24
2018-02-27T08:57:09.307Z,995.17
2018-02-27T08:58:09.297Z,995.15
2018-02-27T08:59:09.292Z,995.16
2018-02-27T09:00:09.286Z,995.18
2018-02-27T09:01:09.277Z,995.20
2018-02-27T09:02:09.282Z,995.23
2018-02-27T09:03:09.266Z,995.20
2018-02-27T09:04:09.264Z,995.20
2018-02-27T09:05:09.255Z,995.17
2018-02-27T09:06:09.248Z,995.16
2018-02-27T09:07:09.238Z,995.20
2018-02-27T09:08:09.251Z,995.11
2018-02-27T09:09:09.226Z,995.13
2018-02-27T09:10:09.218Z,995.18
2018-02-27T09:11:09.216Z,995.14
2018-02-27T09:12:09.206Z,995.14
2018-02-27T09:13:09.200Z,995.12
2018-02-27T09:14:09.194Z,995.12
2018-02-27T09:15:09.188Z,995.14
2018-02-27T09:16:09.180Z,995.10
2018-02-27T09:17:09.174Z,995.03
2018-02-27T09:18:09.168Z,995.09
2018-02-27T09:19:09.163Z,995.05
2018-02-27T09:20:09.156Z,995.09
2018-02-27T09:21:09.149Z,995.10
2018-02-27T09:22:09.141Z,995.05
2018-02-27T09:23:09.136Z,995.07
2018-02-27T09:24:09.130Z,995.04
2018-02-27T09:25:09.124Z,995.08
2018-02-27T09:26:09.118Z,995.04
2018-02-27T09:27:09.110Z,995.04
2018-02-27T09:28:09.103Z,995.04
2018-02-27T09:29:09.098Z,995.03
2018-02-27T09:30:09.090Z,995.05
2018-02-27T09:31:09.085Z,995.05
2018-02-27T09:32:09.078Z,995.06
2018-02-27T09:33:09.074Z,995.04
2018-02-27T09:34:09.065Z,995.04
2018-02-27T09:35:09.061Z,995.07
2018-02-27T09:36:09.052Z,995.00
2018-02-27T09:37:09.047Z,995.00
2018-02-27T09:38:09.040Z,994.96
2018-02-27T09:39:09.035Z,994.98
2018-02-27T09:40:09.028Z,994.97
2018-02-27T09:41:09.020Z,994.94
2018-02-27T09:42:09.014Z,994.94
2018-02-27T09:43:09.011Z,994.91
2018-02-27T09:44:09.003Z,994.98
2018-02-27T09:45:09.001Z,994.92
2018-02-27T09:46:08.990Z,994.95
2018-02-27T09:47:08.983Z,994.85
2018-02-27T09:48:08.977Z,994.88
2018-02-27T09:49:08.972Z,994.83
2018-02-27T09:50:08.965Z,994.89
2018-02-27T09:51:08.961Z,994.90
2018-02-27T09:52:08.956Z,994.92
2018-02-27T09:53:08.944Z,994.87
2018-02-27T09:54:08.940Z,994.86
2018-02-27T09:55:08.934Z,994.85
2018-02-27T09:56:08.928Z,994.89
2018-02-27T09:57:08.923Z,994.82
2018-02-27T09:58:08.921Z,994.87
2018-02-27T09:59:08.909Z,994.88
2018-02-27T10:00:08.903Z,994.82
2018-02-27T10:01:08.894Z,994.81
2018-02-27T10:02:08.889Z,994.79
2018-02-27T10:03:08.884Z,994.81
2018-02-27T10:04:08.877Z,994.80
2018-02-27T10:05:08.872Z,994.84
2018-02-27T10:06:08.866Z,994.80
2018-02-27T10:07:08.860Z,994.76
2018-02-27T10:08:08.857Z,994.77
2018-02-27T10:09:08.844Z,994.79
2018-02-27T10:10:08.841Z,994.81
2018-02-27T10:11:08.835Z,994.78
2018-02-27T10:12:08.834Z,994.86
2018-02-27T10:13:08.827Z,994.77
2018-02-27T10:14:08.815Z,994.82
2018-02-27T10:15:08.810Z,994.80
2018-02-27T10:16:08.803Z,994.80
2018-02-27T10:17:08.799Z,994.73
2018-02-27T10:18:08.792Z,994.71
2018-02-27T10:19:08.783Z,994.75
2018-02-27T10:20:08.779Z,994.76
2018-02-27T10:21:08.774Z,994.76
2018-02-27T10:22:08.768Z,994.73
2018-02-27T10:23:08.761Z,994.72
2018-02-27T10:24:08.754Z,994.78
2018-02-27T10:25:08.750Z,994.70
2018-02-27T10:26:08.776Z,994.73
2018-02-27T10:27:08.761Z,994.78
2018-02-27T10:28:08.758Z,994.73
2018-02-27T10:29:08.744Z,994.70
2018-02-27T10:30:08.728Z,994.71
2018-02-27T10:31:08.710Z,994.70
2018-02-27T10:32:08.706Z,994.74
2018-02-27T10:33:08.700Z,994.63
2018-02-27T10:34:08.694Z,994.73
2018-02-27T10:35:08.689Z,994.76
2018-02-27T10:36:08.687Z,994.78
2018-02-27T10:37:08.674Z,994.75
2018-02-27T10:38:08.670Z,994.77
2018-02-27T10:39:08.664Z,994.79
2018-02-27T10:40:08.661Z,994.73
2018-02-27T10:41:08.651Z,994.70
2018-02-27T10:42:08.644Z,994.76
2018-02-27T10:43:08.639Z,994.73
2018-02-27T10:44:08.637Z,994.76
2018-02-27T10:45:08.629Z,994.76
2018-02-27T10:46:08.621Z,994.71
2018-02-27T10:47:08.620Z,994.75
2018-02-27T10:48:08.610Z,994.74
2018-02-27T10:49:08.606Z,994.67
2018-02-27T10:50:08.596Z,994.69
2018-02-27T10:51:08.598Z,994.71
2018-02-27T10:52:08.588Z,994.67
2018-02-27T10:53:08.580Z,994.67
2018-02-27T10:54:08.570Z,994.73
2018-02-27T10:55:08.567Z,994.73
2018-02-27T10:56:08.563Z,994.69
2018-02-27T10:57:08.555Z,994.69
2018-02-27T10:58:08.550Z,994.67
2018-02-27T10:59:08.543Z,994.69
2018-02-27T11:00:08.540Z,994.70
2018-02-27T11:01:08.536Z,994.67
2018-02-27T11:02:08.529Z,994.64
2018-02-27T11:03:08.517Z,994.66
2018-02-27T11:04:08.512Z,994.62
2018-02-27T11:05:08.508Z,994.65
2018-02-27T11:06:08.501Z,994.58
2018-02-27T11:07:08.493Z,994.57
2018-02-27T11:08:08.491Z,994.57
2018-02-27T11:09:08.482Z,994.58
2018-02-27T11:10:08.477Z,994.54
2018-02-27T11:11:08.471Z,994.45
2018-02-27T11:12:08.466Z,994.53
2018-02-27T11:13:08.459Z,994.49
2018-02-27T11:14:08.451Z,994.44
2018-02-27T11:15:08.446Z,994.43
2018-02-27T11:16:08.493Z,994.42
2018-02-27T11:17:08.442Z,994.42
2018-02-27T11:18:08.426Z,994.40
2018-02-27T11:19:08.420Z,994.32
2018-02-27T11:20:08.413Z,994.33
2018-02-27T11:21:08.410Z,994.38
2018-02-27T11:22:08.403Z,994.33
2018-02-27T11:23:08.396Z,994.24
2018-02-27T11:24:08.390Z,994.31
2018-02-27T11:25:08.385Z,994.29
2018-02-27T11:26:08.378Z,994.34
2018-02-27T11:27:08.372Z,994.32
2018-02-27T11:28:08.365Z,994.29
2018-02-27T11:29:08.362Z,994.30
2018-02-27T11:30:08.353Z,994.30
2018-02-27T11:31:08.348Z,994.22
2018-02-27T11:32:08.343Z,994.24
2018-02-27T11:33:08.335Z,994.22
2018-02-27T11:34:08.330Z,994.24
2018-02-27T11:35:08.323Z,994.18
2018-02-27T11:36:08.316Z,994.23
2018-02-27T11:37:08.310Z,994.17
2018-02-27T11:38:08.304Z,994.15
2018-02-27T11:39:08.298Z,994.10
2018-02-27T11:40:08.292Z,994.08
2018-02-27T11:41:08.288Z,994.10
2018-02-27T11:42:08.278Z,994.10
2018-02-27T11:43:08.272Z,994.07
2018-02-27T11:44:08.266Z,994.05
2018-02-27T11:45:08.260Z,994.09
2018-02-27T11:46:08.254Z,994.12
2018-02-27T11:47:08.249Z,994.10
2018-02-27T11:48:08.242Z,994.05
2018-02-27T11:49:08.236Z,993.99
2018-02-27T11:50:08.229Z,994.05
2018-02-27T11:51:08.223Z,994.07
2018-02-27T11:52:08.217Z,993.98
2018-02-27T11:53:08.213Z,994.00
2018-02-27T11:54:08.207Z,994.03
2018-02-27T11:55:08.198Z,994.01
2018-02-27T11:56:08.193Z,994.04
2018-02-27T11:57:08.185Z,993.97
2018-02-27T11:58:08.180Z,994.04
2018-02-27T11:59:08.171Z,994.00
2018-02-27T12:00:08.166Z,993.99
2018-02-27T12:01:08.159Z,993.90
2018-02-27T12:02:08.154Z,993.97
2018-02-27T12:03:08.146Z,993.92
2018-02-27T12:04:08.140Z,993.92
2018-02-27T12:05:08.135Z,993.92
2018-02-27T12:06:08.127Z,993.86
2018-02-27T12:07:08.127Z,993.90
2018-02-27T12:08:08.114Z,993.84
2018-02-27T12:09:08.108Z,993.83
2018-02-27T12:10:08.101Z,993.85
2018-02-27T12:11:08.093Z,993.87
2018-02-27T12:12:08.088Z,993.88
2018-02-27T12:13:08.082Z,993.83
2018-02-27T12:14:08.074Z,993.82
2018-02-27T12:15:08.069Z,993.78
2018-02-27T12:16:08.063Z,993.85
2018-02-27T12:17:08.055Z,993.84
2018-02-27T12:18:08.052Z,993.81
2018-02-27T12:19:08.041Z,993.76
2018-02-27T12:20:08.037Z,993.75
2018-02-27T12:21:08.031Z,993.80
2018-02-27T12:22:08.022Z,993.78
2018-02-27T12:23:08.019Z,993.81
2018-02-27T12:24:08.010Z,993.80
2018-02-27T12:25:08.003Z,993.72
2018-02-27T12:26:07.995Z,993.68
2018-02-27T12:27:07.990Z,993.74
2018-02-27T12:28:07.982Z,993.78